Time;durP1;ratioP1;P1;durP2;ratioP2;P2;SDS_P1;SDS_P2;PMS_P1;PMS_P2;Temp;Humidity;BMP_temperature;BMP_pressure;BME280_temperature;BME280_humidity;BME280_pressure;Samples;Min_cycle;Max_cycle;Signal;HPM_P1;HPM_P2
2021/03/03 00:01:29;;;;;;;31.00;14.63;;;;;;;2.00;84.21;100170.94;4977410;28;20473;-68
2021/03/03 00:03:54;;;;;;;25.75;12.70;;;;;;;2.19;83.18;100184.59;4981481;28;20077;-68
2021/03/03 00:06:20;;;;;;;26.40;11.95;;;;;;;2.12;82.13;100182.50;4984149;28;20038;-68
2021/03/03 00:08:45;;;;;;;25.10;13.13;;;;;;;2.15;82.08;100176.97;4993656;28;20070;-68
2021/03/03 00:11:10;;;;;;;30.60;13.82;;;;;;;2.01;82.48;100169.97;4986689;28;20035;-68
2021/03/03 00:13:35;;;;;;;27.98;13.88;;;;;;;1.80;83.27;100180.44;4985539;28;20096;-68
2021/03/03 00:16:01;;;;;;;32.85;13.77;;;;;;;1.72;84.44;100178.31;4989740;28;20031;-68
2021/03/03 00:18:26;;;;;;;30.27;14.55;;;;;;;1.56;84.99;100175.09;4978756;28;20373;-68
2021/03/03 00:20:51;;;;;;;31.33;14.05;;;;;;;1.50;85.78;100176.38;4987717;28;20053;-68
2021/03/03 00:23:16;;;;;;;33.58;14.95;;;;;;;1.55;86.14;100178.72;4991675;28;20066;-68
2021/03/03 00:25:42;;;;;;;29.77;14.73;;;;;;;1.56;85.41;100182.25;5007859;28;20038;-68
2021/03/03 00:28:07;;;;;;;30.75;13.68;;;;;;;1.48;84.80;100191.66;4987545;28;20041;-68
2021/03/03 00:30:32;;;;;;;25.45;12.73;;;;;;;1.38;83.86;100187.09;4994862;28;20526;-68
2021/03/03 00:32:57;;;;;;;24.73;11.90;;;;;;;1.18;83.03;100193.84;4997049;28;20030;-68
2021/03/03 00:35:23;;;;;;;30.13;11.48;;;;;;;1.01;84.23;100179.91;4977979;28;20049;-68
2021/03/03 00:37:48;;;;;;;23.65;11.88;;;;;;;0.93;84.14;100171.59;4979379;28;20039;-68
2021/03/03 00:40:14;;;;;;;32.17;12.70;;;;;;;0.87;84.76;100177.38;4983289;28;20469;-68
2021/03/03 00:42:39;;;;;;;30.25;13.27;;;;;;;0.79;85.17;100161.91;4995505;28;20042;-68
2021/03/03 00:45:06;;;;;;;31.20;13.38;;;;;;;0.94;85.98;100181.28;4993489;28;20026;-68
2021/03/03 00:47:31;;;;;;;30.30;14.10;;;;;;;1.08;85.80;100178.50;5000602;28;20400;-68
2021/03/03 00:49:57;;;;;;;27.80;14.00;;;;;;;1.07;85.54;100181.28;5002168;28;20026;-68
2021/03/03 00:52:22;;;;;;;26.23;13.27;;;;;;;1.17;85.01;100187.66;4994986;28;20052;-69
2021/03/03 00:54:47;;;;;;;26.30;13.55;;;;;;;1.05;85.29;100168.06;4992942;28;20053;-69
2021/03/03 00:57:12;;;;;;;31.00;12.90;;;;;;;1.07;85.02;100170.63;4979645;28;20035;-69
2021/03/03 00:59:38;;;;;;;30.02;12.30;;;;;;;1.12;84.93;100173.81;4993045;28;20029;-69
2021/03/03 01:02:03;;;;;;;31.30;12.25;;;;;;;1.03;84.99;100178.00;4994813;28;20034;-68
2021/03/03 01:04:28;;;;;;;30.35;13.23;;;;;;;0.99;85.70;100173.81;4989202;28;20081;-68
2021/03/03 01:06:53;;;;;;;24.70;12.75;;;;;;;0.99;85.22;100179.16;4973775;28;20039;-68
2021/03/03 01:09:19;;;;;;;27.70;13.50;;;;;;;0.97;85.93;100175.75;4993459;28;20397;-69
2021/03/03 01:11:44;;;;;;;32.13;13.77;;;;;;;0.97;85.53;100174.88;4975110;28;20037;-69
2021/03/03 01:14:09;;;;;;;27.75;13.40;;;;;;;0.98;86.38;100173.94;4987219;28;20034;-68
2021/03/03 01:16:35;;;;;;;26.48;13.45;;;;;;;1.09;86.19;100171.38;4993911;28;20073;-68
2021/03/03 01:19:00;;;;;;;27.88;12.60;;;;;;;1.16;86.39;100166.47;4989992;28;20022;-68
2021/03/03 01:21:25;;;;;;;32.17;13.57;;;;;;;1.22;86.31;100171.34;4990257;28;20026;-69
2021/03/03 01:23:50;;;;;;;27.25;13.38;;;;;;;1.22;85.83;100171.34;4991637;28;20472;-69
2021/03/03 01:26:16;;;;;;;31.17;13.00;;;;;;;1.22;85.91;100166.84;4994424;28;20096;-68
2021/03/03 01:28:41;;;;;;;25.83;12.95;;;;;;;1.02;85.34;100152.31;4992425;28;20113;-68
2021/03/03 01:31:06;;;;;;;28.95;13.18;;;;;;;1.04;86.21;100157.50;4984310;28;20030;-69
2021/03/03 01:33:32;;;;;;;26.42;12.85;;;;;;;1.01;86.62;100160.41;4983573;28;20037;-69
2021/03/03 01:35:57;;;;;;;27.17;13.93;;;;;;;0.98;86.24;100160.63;4974679;28;20035;-68
2021/03/03 01:38:23;;;;;;;25.35;12.27;;;;;;;0.88;85.76;100153.25;4984348;28;20026;-68
2021/03/03 01:40:49;;;;;;;30.40;13.15;;;;;;;0.76;85.60;100147.94;4986507;28;20096;-68
2021/03/03 01:43:15;;;;;;;28.42;12.85;;;;;;;0.72;85.64;100154.47;4986953;28;20030;-68
2021/03/03 01:45:40;;;;;;;32.50;13.57;;;;;;;0.75;86.00;100163.09;4991914;28;20081;-68
2021/03/03 01:48:06;;;;;;;34.13;13.00;;;;;;;0.76;86.38;100161.25;4993875;28;20031;-68
2021/03/03 01:50:32;;;;;;;30.70;12.23;;;;;;;0.70;86.32;100148.38;4989685;28;20033;-68
2021/03/03 01:52:58;;;;;;;25.80;12.45;;;;;;;0.78;86.44;100159.34;4984778;28;20026;-68
2021/03/03 01:55:23;;;;;;;29.42;13.50;;;;;;;0.82;86.97;100156.38;4992836;28;20465;-68
2021/03/03 01:57:49;;;;;;;24.92;12.70;;;;;;;0.84;87.31;100153.63;4986856;28;20034;-68
2021/03/03 02:00:16;;;;;;;30.33;13.55;;;;;;;0.79;87.69;100147.75;4981255;28;20026;-68
2021/03/03 02:02:41;;;;;;;27.77;12.80;;;;;;;0.84;87.52;100145.63;4981256;28;20366;-68
2021/03/03 02:05:07;;;;;;;32.90;13.13;;;;;;;1.05;87.10;100149.44;4973896;28;20034;-68
2021/03/03 02:07:44;;;;;;;29.98;12.30;;;;;;;1.01;86.17;100144.41;4992864;28;20026;-68
2021/03/03 02:10:17;;;;;;;26.13;12.65;;;;;;;1.04;86.40;100144.19;4987766;28;20038;-68
2021/03/03 02:12:52;;;;;;;31.45;13.43;;;;;;;0.97;86.62;100142.91;4985888;28;20496;-68
2021/03/03 02:15:19;;;;;;;26.30;13.27;;;;;;;0.95;86.41;100144.84;4992396;28;20038;-68
2021/03/03 02:17:45;;;;;;;32.63;13.60;;;;;;;0.96;86.80;100141.22;4993169;28;20121;-68
2021/03/03 02:20:14;;;;;;;29.88;12.70;;;;;;;0.92;87.10;100139.72;4991128;28;20424;-68
2021/03/03 02:22:53;;;;;;;22.43;9.40;;;;;;;0.93;86.30;100144.09;4988067;28;20109;-68
2021/03/03 02:25:29;;;;;;;;;;;;;;;0.97;86.96;100146.47;4991016;28;20037;-68
2021/03/03 02:27:58;;;;;;;31.33;13.00;;;;;;;0.89;86.55;100148.78;4986811;28;19910;-68
2021/03/03 02:30:25;;;;;;;21.07;9.10;;;;;;;0.85;86.75;100132.19;4977830;28;20034;-68
2021/03/03 02:32:51;;;;;;;29.67;13.48;;;;;;;0.89;86.73;100146.13;4974507;28;20427;-68
2021/03/03 02:35:18;;;;;;;29.48;13.13;;;;;;;0.90;86.85;100137.19;4973302;28;20038;-69
2021/03/03 02:37:45;;;;;;;26.20;13.05;;;;;;;0.92;87.21;100135.28;4992773;28;20033;-68
2021/03/03 02:40:12;;;;;;;27.75;13.25;;;;;;;0.93;86.69;100134.28;4994642;28;20121;-68
2021/03/03 02:42:38;;;;;;;24.95;11.73;;;;;;;0.96;85.77;100134.06;4989636;28;20053;-68
2021/03/03 02:45:07;;;;;;;28.15;12.13;;;;;;;0.88;85.16;100133.78;4992387;28;20029;-68
2021/03/03 02:47:35;;;;;;;20.65;8.20;;;;;;;0.96;83.56;100122.56;4987849;28;20026;-68
2021/03/03 02:50:00;;;;;;;22.75;10.55;;;;;;;0.84;83.05;100108.31;4976235;28;20396;-68
2021/03/03 02:52:27;;;;;;;31.00;12.07;;;;;;;0.85;82.65;100131.34;4980106;28;20041;-68
2021/03/03 02:54:53;;;;;;;26.58;10.77;;;;;;;0.69;82.89;100117.41;4992540;28;20038;-68
2021/03/03 02:57:19;;;;;;;26.52;12.05;;;;;;;0.64;83.39;100118.56;4999648;28;20022;-68
2021/03/03 02:59:52;;;;;;;23.50;12.05;;;;;;;0.58;83.72;100120.81;4990932;28;20085;-68
2021/03/03 03:02:21;;;;;;;22.60;10.98;;;;;;;0.53;83.67;100123.78;4976244;28;20178;-68
2021/03/03 03:04:48;;;;;;;25.30;11.57;;;;;;;0.52;83.71;100126.56;4992798;28;20387;-68
2021/03/03 03:07:20;;;;;;;22.90;11.00;;;;;;;0.51;83.28;100117.72;4992697;28;20476;-68
2021/03/03 03:09:48;;;;;;;22.52;10.95;;;;;;;0.64;83.88;100137.19;4976139;28;20030;-68
2021/03/03 03:12:16;;;;;;;24.13;11.15;;;;;;;0.62;82.90;100136.44;4981433;28;20165;-68
2021/03/03 03:14:46;;;;;;;22.63;11.55;;;;;;;0.62;83.27;100139.13;4984438;28;20114;-68
2021/03/03 03:17:12;;;;;;;25.92;11.80;;;;;;;0.54;83.00;100138.78;4993104;28;20031;-68
2021/03/03 03:19:39;;;;;;;25.20;11.65;;;;;;;0.54;83.48;100144.13;4993721;28;20026;-68
2021/03/03 03:22:08;;;;;;;23.40;11.48;;;;;;;0.48;83.85;100139.25;4985037;28;20026;-68
2021/03/03 03:24:34;;;;;;;24.00;11.90;;;;;;;0.47;84.92;100134.84;4977720;28;20054;-68
2021/03/03 03:27:00;;;;;;;30.83;12.63;;;;;;;0.75;85.45;100122.28;4987408;28;20027;-68
2021/03/03 03:29:26;;;;;;;25.38;13.10;;;;;;;0.85;85.65;100120.66;4975911;28;20037;-68
2021/03/03 03:31:51;;;;;;;26.92;11.60;;;;;;;0.79;84.03;100116.63;4986867;28;20101;-68
2021/03/03 03:34:17;;;;;;;27.20;11.77;;;;;;;0.78;82.61;100103.41;4996787;28;20105;-68
2021/03/03 03:36:43;;;;;;;26.85;12.07;;;;;;;0.77;82.37;100131.03;4997603;28;20471;-68
2021/03/03 03:39:11;;;;;;;24.70;11.20;;;;;;;0.53;83.36;100126.47;4979243;28;20030;-68
2021/03/03 03:41:38;;;;;;;31.45;12.95;;;;;;;0.47;84.12;100126.00;4976548;28;20129;-68
2021/03/03 03:44:07;;;;;;;26.80;12.27;;;;;;;0.46;83.96;100125.16;4981352;28;20026;-68
2021/03/03 03:46:33;;;;;;;24.30;11.55;;;;;;;0.34;84.39;100112.69;4977480;28;20040;-69
2021/03/03 03:48:59;;;;;;;25.83;11.82;;;;;;;0.41;84.17;100117.50;4989475;28;20034;-68
2021/03/03 03:51:25;;;;;;;25.58;12.05;;;;;;;0.38;84.31;100116.88;4995733;28;20124;-68
2021/03/03 03:53:50;;;;;;;25.58;11.77;;;;;;;0.46;83.65;100119.84;4995984;28;20084;-68
2021/03/03 03:56:15;;;;;;;24.92;12.05;;;;;;;0.42;83.97;100129.03;4978838;28;20030;-68
2021/03/03 03:58:41;;;;;;;25.85;13.20;;;;;;;0.42;85.41;100126.34;4979881;28;20030;-68
2021/03/03 04:01:06;;;;;;;31.13;12.43;;;;;;;0.43;85.12;100133.38;4989913;28;20022;-67
2021/03/03 04:03:32;;;;;;;29.77;13.68;;;;;;;0.44;85.83;100140.38;4995760;28;20033;-68
2021/03/03 04:05:58;;;;;;;26.90;11.80;;;;;;;0.35;84.56;100139.22;4994666;28;20080;-68
2021/03/03 04:08:24;;;;;;;23.02;11.38;;;;;;;0.23;84.25;100145.38;4995540;28;20130;-68
2021/03/03 04:10:49;;;;;;;25.48;11.48;;;;;;;0.12;83.84;100148.78;4994458;28;20105;-68
2021/03/03 04:13:14;;;;;;;25.40;10.90;;;;;;;0.06;84.46;100149.19;4992590;28;20130;-68
2021/03/03 04:15:39;;;;;;;30.10;12.45;;;;;;;-0.09;85.10;100135.09;5018594;22;20064;-68
2021/03/03 04:18:05;;;;;;;26.20;12.60;;;;;;;0.05;86.17;100157.25;5016480;28;20030;-68
2021/03/03 04:20:30;;;;;;;20.95;11.52;;;;;;;0.06;85.39;100159.84;5016597;28;20030;-69
2021/03/03 04:22:56;;;;;;;26.15;12.35;;;;;;;0.03;86.57;100170.69;5002847;28;20471;-68
2021/03/03 04:25:21;;;;;;;27.35;12.35;;;;;;;-0.07;85.83;100158.97;5008357;28;20034;-69
2021/03/03 04:27:46;;;;;;;26.33;12.25;;;;;;;0.25;86.16;100167.44;5015816;28;20494;-68
2021/03/03 04:30:17;;;;;;;29.90;12.40;;;;;;;0.49;86.15;100164.88;5014917;28;20437;-68
2021/03/03 04:32:42;;;;;;;28.45;12.35;;;;;;;0.52;84.83;100167.34;5013099;28;20038;-68
2021/03/03 04:35:09;;;;;;;23.13;11.48;;;;;;;0.33;84.96;100153.59;5014074;28;20034;-68
2021/03/03 04:37:35;;;;;;;25.05;12.07;;;;;;;0.30;85.23;100159.13;5014822;28;20133;-68
2021/03/03 04:40:00;;;;;;;27.65;12.10;;;;;;;0.20;85.31;100154.41;5014172;28;20037;-69
2021/03/03 04:42:26;;;;;;;27.52;12.23;;;;;;;0.37;85.76;100157.78;5013084;28;20032;-76
2021/03/03 04:44:51;;;;;;;28.10;11.98;;;;;;;0.52;85.37;100171.81;5012755;28;20065;-74
2021/03/03 04:47:17;;;;;;;28.00;12.35;;;;;;;0.58;84.91;100160.75;5010497;28;20467;-73
2021/03/03 04:49:42;;;;;;;26.10;12.75;;;;;;;0.62;85.09;100146.25;5014272;28;20084;-72
2021/03/03 04:52:08;;;;;;;25.83;11.93;;;;;;;0.76;84.39;100153.28;5013026;28;20057;-71
2021/03/03 04:54:36;;;;;;;26.08;12.07;;;;;;;0.71;85.01;100158.06;5013474;28;20403;-72
2021/03/03 04:57:03;;;;;;;26.15;12.50;;;;;;;0.51;85.43;100162.97;5019634;28;20061;-74
2021/03/03 04:59:29;;;;;;;33.63;13.98;;;;;;;0.37;86.19;100136.47;5005052;28;20101;-72
2021/03/03 05:01:54;;;;;;;27.08;12.48;;;;;;;0.41;86.14;100154.75;5013838;28;20063;-74
2021/03/03 05:04:20;;;;;;;31.35;13.77;;;;;;;0.39;86.65;100153.16;5012213;28;20034;-73
2021/03/03 05:06:45;;;;;;;29.52;13.13;;;;;;;0.36;87.29;100158.72;5012594;28;20038;-71
2021/03/03 05:09:10;;;;;;;31.20;14.00;;;;;;;0.08;87.64;100128.66;5009991;28;20030;-71
2021/03/03 05:11:35;;;;;;;28.42;13.20;;;;;;;0.24;87.27;100167.50;5012713;28;20026;-70
2021/03/03 05:14:01;;;;;;;30.33;14.00;;;;;;;0.03;87.77;100129.91;5012376;28;20032;-72
2021/03/03 05:16:26;;;;;;;33.08;15.07;;;;;;;0.30;88.26;100135.19;5011167;28;20483;-72
2021/03/03 05:18:51;;;;;;;26.98;13.95;;;;;;;0.52;87.90;100143.38;5013726;28;20498;-71
2021/03/03 05:21:17;;;;;;;28.67;14.00;;;;;;;0.47;87.43;100142.00;5012847;28;20029;-72
2021/03/03 05:23:42;;;;;;;30.90;14.45;;;;;;;0.36;86.47;100142.72;4998217;28;20651;-71
2021/03/03 05:26:07;;;;;;;31.52;14.43;;;;;;;0.34;86.53;100147.31;5010650;28;20029;-71
2021/03/03 05:28:34;;;;;;;26.23;13.77;;;;;;;0.28;86.74;100139.75;5014020;28;21540;-72
2021/03/03 05:30:59;;;;;;;31.88;12.82;;;;;;;0.24;86.48;100148.88;5010979;28;20065;-72
2021/03/03 05:33:34;;;;;;;26.55;12.90;;;;;;;0.20;86.55;100135.78;4995391;28;20508;-72
2021/03/03 05:36:04;;;;;;;31.35;14.13;;;;;;;0.13;85.87;100131.88;5012081;28;20026;-72
2021/03/03 05:38:34;;;;;;;27.40;12.93;;;;;;;0.15;86.26;100140.56;5012255;28;20388;-73
2021/03/03 05:41:00;;;;;;;26.52;13.70;;;;;;;0.11;86.51;100146.22;5014115;28;20037;-74
2021/03/03 05:43:27;;;;;;;27.85;13.15;;;;;;;0.06;86.98;100130.56;5012456;28;20022;-74
2021/03/03 05:45:52;;;;;;;23.75;12.70;;;;;;;0.07;86.70;100128.75;5013649;28;20368;-68
2021/03/03 05:48:31;;;;;;;24.63;12.18;;;;;;;0.13;86.62;100138.97;5013919;28;20033;-68
2021/03/03 05:51:01;;;;;;;31.35;14.05;;;;;;;0.15;85.97;100140.56;5000966;28;20030;-67
2021/03/03 05:53:28;;;;;;;25.83;12.65;;;;;;;0.22;85.40;100147.19;5006279;28;20393;-71
2021/03/03 05:55:58;;;;;;;29.98;12.05;;;;;;;0.17;86.17;100136.00;5008478;28;20081;-72
2021/03/03 05:58:26;;;;;;;24.90;12.75;;;;;;;0.12;86.13;100140.78;5013737;28;20068;-72
2021/03/03 06:00:54;;;;;;;24.45;12.52;;;;;;;0.07;86.12;100137.59;5012644;28;20025;-72
2021/03/03 06:03:20;;;;;;;27.42;12.65;;;;;;;-0.06;86.11;100121.59;5011649;28;20034;-72
2021/03/03 06:05:47;;;;;;;27.42;12.80;;;;;;;0.10;86.72;100145.34;5009562;28;20041;-72
2021/03/03 06:08:15;;;;;;;25.55;11.75;;;;;;;0.19;86.34;100139.41;5014203;28;20049;-73
2021/03/03 06:10:40;;;;;;;31.20;13.20;;;;;;;0.05;86.47;100128.84;5013594;28;20433;-73
2021/03/03 06:13:06;;;;;;;30.23;12.98;;;;;;;0.05;86.67;100131.50;5012994;28;20030;-74
2021/03/03 06:15:31;;;;;;;28.52;13.50;;;;;;;0.12;86.83;100140.78;5012978;28;20080;-71
2021/03/03 06:17:57;;;;;;;25.23;11.30;;;;;;;0.16;86.39;100154.75;5004843;28;20041;-75
2021/03/03 06:20:22;;;;;;;26.35;13.27;;;;;;;0.11;86.73;100147.06;5004623;28;20072;-72
2021/03/03 06:22:47;;;;;;;30.10;12.93;;;;;;;0.11;86.75;100138.25;5016168;28;20030;-74
2021/03/03 06:25:17;;;;;;;25.77;12.57;;;;;;;0.39;86.51;100146.06;5017995;28;20133;-78
2021/03/03 06:27:43;;;;;;;25.63;12.48;;;;;;;0.48;86.44;100146.38;5029105;28;20045;-74
2021/03/03 06:30:14;;;;;;;28.10;12.48;;;;;;;0.55;85.81;100152.97;5017972;28;20474;-73
2021/03/03 06:33:03;;;;;;;28.00;13.27;;;;;;;0.61;86.09;100149.88;5003016;28;20461;-76
2021/03/03 06:35:47;;;;;;;24.85;12.18;;;;;;;0.57;85.44;100146.56;5015294;28;20038;-76
2021/03/03 06:38:16;;;;;;;26.55;12.30;;;;;;;0.94;84.70;100157.31;5014670;28;20037;-77
2021/03/03 06:40:56;;;;;;;25.73;12.93;;;;;;;0.84;84.91;100140.28;5005900;28;20065;-73
2021/03/03 06:43:27;;;;;;;25.92;12.05;;;;;;;0.89;84.34;100154.13;5014284;28;20030;-72
2021/03/03 06:45:53;;;;;;;27.48;12.57;;;;;;;0.88;83.51;100125.78;5000801;28;20125;-72
2021/03/03 06:48:43;;;;;;;31.30;13.57;;;;;;;1.19;83.37;100166.25;5000397;28;20476;-70
2021/03/03 06:51:38;;;;;;;30.77;15.10;;;;;;;1.30;83.21;100167.16;5007704;28;20042;-74
2021/03/03 06:54:05;;;;;;;25.88;12.88;;;;;;;1.51;82.18;100140.75;4998663;28;20030;-76
2021/03/03 06:56:35;;;;;;;32.05;14.18;;;;;;;1.49;81.26;100153.38;5019838;28;20156;-73
2021/03/03 06:59:18;;;;;;;27.58;14.18;;;;;;;1.48;81.59;100164.13;5010573;28;20038;-74
2021/03/03 07:01:49;;;;;;;26.70;13.23;;;;;;;1.51;81.77;100164.75;5013097;28;20407;-71
2021/03/03 07:04:18;;;;;;;32.97;14.55;;;;;;;1.67;81.56;100169.81;5004453;28;20034;-71
2021/03/03 07:06:43;;;;;;;28.92;14.32;;;;;;;1.67;81.54;100150.28;5017404;28;20041;-74
2021/03/03 07:09:09;;;;;;;27.48;12.90;;;;;;;1.75;81.59;100142.56;5017907;28;20033;-74
2021/03/03 07:11:34;;;;;;;29.33;12.57;;;;;;;1.88;81.22;100159.34;5017641;28;20038;-69
2021/03/03 07:14:12;;;;;;;26.23;13.07;;;;;;;1.95;80.82;100152.59;5017003;28;20494;-71
2021/03/03 07:17:16;;;;;;;28.27;13.05;;;;;;;2.10;79.66;100165.78;5011885;28;20072;-74
2021/03/03 07:19:47;;;;;;;28.55;12.93;;;;;;;2.18;78.67;100174.06;5013684;28;20034;-70
2021/03/03 07:22:33;;;;;;;26.75;12.57;;;;;;;2.17;78.32;100159.88;5013927;28;20025;-72
2021/03/03 07:25:12;;;;;;;25.90;13.02;;;;;;;2.31;78.24;100171.31;5008583;28;20018;-69
2021/03/03 07:27:48;;;;;;;;;;;;;;;2.26;77.89;100173.47;5003602;28;20022;-72
2021/03/03 07:30:23;;;;;;;31.02;13.75;;;;;;;2.27;77.55;100162.66;5025078;28;19955;-74
2021/03/03 07:32:50;;;;;;;27.67;15.15;;;;;;;2.31;77.57;100155.28;5014297;28;20042;-71
2021/03/03 07:35:16;;;;;;;25.25;13.60;;;;;;;2.28;77.11;100156.38;5006715;28;20430;-71
2021/03/03 07:37:48;;;;;;;34.92;15.95;;;;;;;2.35;77.99;100172.75;5017050;28;20525;-72
2021/03/03 07:40:16;;;;;;;48.10;20.02;;;;;;;2.39;77.82;100167.06;5004264;28;20105;-74
2021/03/03 07:42:57;;;;;;;33.22;16.50;;;;;;;2.50;77.79;100166.25;5006851;28;20010;-78
2021/03/03 07:45:28;;;;;;;30.58;15.40;;;;;;;2.77;77.63;100152.56;5045906;28;20025;-77
2021/03/03 07:47:55;;;;;;;28.35;12.77;;;;;;;2.95;77.00;100152.94;5013666;28;20064;-72
2021/03/03 07:50:22;;;;;;;23.60;13.00;;;;;;;2.92;76.84;100152.34;5013329;28;20033;-74
2021/03/03 07:52:55;;;;;;;23.90;11.40;;;;;;;3.05;76.92;100164.59;5011374;28;20022;-71
2021/03/03 07:55:20;;;;;;;24.83;12.40;;;;;;;3.23;77.10;100164.13;4999638;28;20072;-70
2021/03/03 07:57:58;;;;;;;25.38;13.38;;;;;;;3.34;76.28;100164.09;5007905;28;20026;-71
2021/03/03 08:00:26;;;;;;;28.83;13.35;;;;;;;3.43;76.09;100149.13;4996262;28;20034;-70
2021/03/03 08:02:53;;;;;;;28.98;14.38;;;;;;;3.65;75.23;100164.28;5014352;28;20025;-70
2021/03/03 08:05:36;;;;;;;29.23;13.38;;;;;;;3.88;75.56;100160.56;5011885;28;20017;-70
2021/03/03 08:08:08;;;;;;;24.20;12.15;;;;;;;4.10;74.34;100159.63;5004347;28;20483;-71
2021/03/03 08:10:38;;;;;;;26.70;13.23;;;;;;;3.99;74.91;100159.69;5004930;28;20019;-71
2021/03/03 08:13:17;;;;;;;29.67;13.63;;;;;;;4.22;74.13;100147.03;5007868;28;20034;-71
2021/03/03 08:15:46;;;;;;;25.20;12.90;;;;;;;4.34;73.43;100158.53;5001966;28;20034;-71
2021/03/03 08:18:19;;;;;;;25.42;13.48;;;;;;;4.61;73.76;100155.31;5008386;28;20303;-70
2021/03/03 08:20:48;;;;;;;25.55;13.68;;;;;;;4.74;73.16;100141.72;5003677;28;20076;-74
2021/03/03 08:23:58;;;;;;;26.95;14.20;;;;;;;4.90;72.25;100142.09;5010572;28;20022;-72
2021/03/03 08:26:23;;;;;;;44.42;17.15;;;;;;;5.07;71.27;100137.91;4930547;29;20517;-72
2021/03/03 08:28:53;;;;;;;34.05;16.13;;;;;;;5.12;71.64;100142.88;4987468;28;20125;-75
2021/03/03 08:31:24;;;;;;;30.70;15.88;;;;;;;5.37;71.17;100139.72;5020308;28;20052;-72
2021/03/03 08:33:49;;;;;;;30.90;14.68;;;;;;;5.54;71.71;100143.56;5020965;28;20064;-72
2021/03/03 08:36:18;;;;;;;26.05;14.48;;;;;;;5.68;71.90;100147.69;5020012;28;20054;-67
2021/03/03 08:38:55;;;;;;;28.67;14.37;;;;;;;5.84;71.75;100153.38;5016965;28;20105;-73
2021/03/03 08:41:30;;;;;;;22.55;13.38;;;;;;;5.76;70.83;100147.84;5026329;28;20065;-71
2021/03/03 08:44:04;;;;;;;29.15;14.30;;;;;;;5.61;71.10;100151.94;5016756;28;20037;-73
2021/03/03 08:46:29;;;;;;;27.40;13.88;;;;;;;5.97;70.35;100150.44;5017515;28;20073;-74
2021/03/03 08:48:55;;;;;;;24.02;13.88;;;;;;;6.03;70.70;100141.81;5019104;28;20029;-73
2021/03/03 08:51:31;;;;;;;24.70;13.43;;;;;;;6.11;69.74;100149.19;5016048;28;20399;-74
2021/03/03 08:54:07;;;;;;;26.08;13.75;;;;;;;6.21;70.51;100150.03;5012138;28;20461;-73
2021/03/03 08:56:37;;;;;;;23.20;12.93;;;;;;;6.11;70.40;100154.56;5027646;28;20025;-73
2021/03/03 08:59:24;;;;;;;23.52;13.63;;;;;;;5.98;69.57;100159.38;5010603;28;20479;-76
2021/03/03 09:02:18;;;;;;;26.02;14.43;;;;;;;6.15;70.82;100137.16;5008451;28;20026;-69
2021/03/03 09:04:51;;;;;;;28.38;15.07;;;;;;;6.69;68.39;100137.50;4994929;28;20037;-73
2021/03/03 09:07:25;;;;;;;28.30;14.77;;;;;;;6.71;68.82;100132.84;5009554;28;20025;-73
2021/03/03 09:09:54;;;;;;;35.97;15.93;;;;;;;6.47;69.14;100133.28;5013288;28;20030;-73
2021/03/03 09:12:32;;;;;;;32.22;17.48;;;;;;;6.76;67.71;100139.47;5021634;28;20026;-71
2021/03/03 09:15:03;;;;;;;33.90;16.15;;;;;;;6.64;67.71;100124.47;5008541;28;20069;-72
2021/03/03 09:17:30;;;;;;;30.73;15.88;;;;;;;7.17;67.53;100131.94;5010494;28;20038;-71
2021/03/03 09:19:59;;;;;;;32.63;16.15;;;;;;;7.04;68.66;100134.13;5013491;28;20030;-72
2021/03/03 09:22:32;;;;;;;33.40;15.38;;;;;;;7.15;68.29;100133.06;5009374;28;20029;-73
2021/03/03 09:25:15;;;;;;;30.58;16.42;;;;;;;7.11;68.81;100137.91;5004900;28;20037;-72
2021/03/03 09:27:47;;;;;;;34.00;17.05;;;;;;;7.51;67.44;100128.63;5005889;28;20079;-72
2021/03/03 09:30:13;;;;;;;29.42;15.90;;;;;;;7.72;67.53;100117.59;5008802;28;20087;-71
2021/03/03 09:32:38;;;;;;;29.95;16.25;;;;;;;7.69;67.64;100125.97;5011945;28;20547;-72
2021/03/03 09:35:06;;;;;;;28.02;16.05;;;;;;;7.76;67.04;100120.84;5013288;28;20033;-72
2021/03/03 09:37:42;;;;;;;27.08;15.82;;;;;;;7.62;67.35;100108.72;5008357;28;20065;-74
2021/03/03 09:40:11;;;;;;;30.45;15.73;;;;;;;7.58;67.79;100127.03;5011029;28;20037;-70
2021/03/03 09:42:41;;;;;;;39.30;14.90;;;;;;;7.76;67.22;100131.63;5031685;28;20108;-70
2021/03/03 09:45:09;;;;;;;28.05;15.68;;;;;;;7.57;68.41;100133.44;5022723;28;20037;-68
2021/03/03 09:47:42;;;;;;;27.90;14.75;;;;;;;7.80;66.71;100122.22;5105297;27;20364;-69
2021/03/03 09:50:33;;;;;;;31.90;15.95;;;;;;;7.49;69.16;100119.00;5101784;28;20066;-74
2021/03/03 09:52:59;;;;;;;29.67;15.98;;;;;;;7.69;68.63;100120.59;5090101;28;20047;-74
2021/03/03 09:55:27;;;;;;;33.92;15.40;;;;;;;7.87;68.63;100107.13;5091038;28;20153;-75
2021/03/03 09:57:55;;;;;;;31.27;15.97;;;;;;;8.30;67.85;100124.34;5098809;28;20078;-74
2021/03/03 10:00:22;;;;;;;32.47;16.77;;;;;;;8.35;67.54;100114.78;5087615;28;20271;-73
2021/03/03 10:02:52;;;;;;;26.55;14.93;;;;;;;8.83;65.78;100109.94;5088581;28;20028;-73
2021/03/03 10:05:29;;;;;;;30.27;15.27;;;;;;;8.71;66.92;100111.19;5096241;28;20028;-73
2021/03/03 10:08:00;;;;;;;29.92;15.25;;;;;;;8.52;66.98;100107.69;5097498;28;20417;-75
2021/03/03 10:10:28;;;;;;;29.88;14.20;;;;;;;9.08;65.86;100107.34;5110477;28;20470;-74
2021/03/03 10:12:54;;;;;;;25.88;15.48;;;;;;;9.59;64.23;100116.31;5103816;27;20032;-75
2021/03/03 10:15:21;;;;;;;26.48;14.73;;;;;;;9.61;64.66;100108.88;5101732;23;20028;-74
2021/03/03 10:17:54;;;;;;;25.85;15.00;;;;;;;10.05;62.92;100097.81;5028210;28;20041;-76
2021/03/03 10:20:48;;;;;;;30.00;15.60;;;;;;;10.26;62.07;100102.69;5041648;28;20040;-75
2021/03/03 10:23:17;;;;;;;31.63;15.63;;;;;;;10.69;61.04;100111.50;5043100;28;20454;-75
2021/03/03 10:25:51;;;;;;;33.53;16.58;;;;;;;10.49;61.82;100109.16;5033196;28;20044;-74
2021/03/03 10:28:25;;;;;;;25.95;14.68;;;;;;;10.63;61.43;100114.88;5048605;28;20382;-75
2021/03/03 10:30:52;;;;;;;34.25;16.45;;;;;;;10.77;61.20;100105.19;5047767;28;20083;-76
2021/03/03 10:33:35;;;;;;;27.77;15.82;;;;;;;10.92;61.34;100108.88;5046685;28;20025;-74
2021/03/03 10:36:14;;;;;;;28.58;14.90;;;;;;;11.08;61.85;100106.16;5043458;28;20022;-74
2021/03/03 10:38:44;;;;;;;30.88;16.92;;;;;;;11.06;61.49;100100.06;5042255;28;20540;-72
2021/03/03 10:41:24;;;;;;;32.17;17.33;;;;;;;11.75;59.65;100093.97;5048271;28;20033;-72
2021/03/03 10:43:49;;;;;;;;;;;;;;;11.96;59.24;100104.19;5046705;28;20390;-72
2021/03/03 10:46:20;;;;;;;29.85;15.27;;;;;;;12.47;58.07;100101.72;5046959;28;19999;-71
2021/03/03 10:48:47;;;;;;;25.17;15.60;;;;;;;12.48;58.24;100098.00;5048755;28;20060;-74
2021/03/03 10:51:15;;;;;;;24.85;14.60;;;;;;;12.65;57.78;100098.66;5048602;28;20036;-73
2021/03/03 10:53:57;;;;;;;28.08;15.88;;;;;;;12.56;57.29;100099.78;5045343;28;20028;-77
2021/03/03 10:56:44;;;;;;;34.08;15.60;;;;;;;12.13;58.83;100103.06;5047843;28;20017;-76
2021/03/03 10:59:21;;;;;;;29.48;15.10;;;;;;;12.30;58.63;100097.50;5034930;28;20021;-80
2021/03/03 11:01:56;;;;;;;25.52;15.18;;;;;;;13.05;56.93;100102.84;5041957;28;20167;-75
2021/03/03 11:04:21;;;;;;;32.25;14.93;;;;;;;13.32;55.66;100085.03;5033925;28;20115;-74
2021/03/03 11:06:46;;;;;;;30.05;14.70;;;;;;;13.62;55.09;100081.41;5034452;28;20087;-75
2021/03/03 11:09:14;;;;;;;26.85;15.40;;;;;;;14.06;53.86;100073.09;5033960;28;20034;-72
2021/03/03 11:11:47;;;;;;;27.58;14.38;;;;;;;14.03;53.40;100068.88;5034881;28;20156;-74
2021/03/03 11:14:12;;;;;;;24.02;14.73;;;;;;;14.06;53.27;100078.53;5034591;28;20079;-70
2021/03/03 11:16:37;;;;;;;24.02;14.50;;;;;;;14.68;52.46;100083.28;5032918;28;20301;-70
2021/03/03 11:19:03;;;;;;;27.35;15.25;;;;;;;15.21;51.07;100076.44;5029114;28;20021;-69
2021/03/03 11:21:28;;;;;;;26.27;14.75;;;;;;;15.04;50.44;100065.91;5034932;28;20112;-70
2021/03/03 11:23:53;;;;;;;25.15;14.77;;;;;;;14.74;51.15;100064.44;5035172;28;20040;-70
2021/03/03 11:26:19;;;;;;;24.92;15.05;;;;;;;14.77;50.30;100062.16;5032000;28;20070;-70